createdAt,value
2023-05-13T00:02:22.132Z,90.03
2023-05-13T00:04:51.953Z,90.23
2023-05-13T00:07:21.817Z,90.18
2023-05-13T00:09:54.239Z,90.11
2023-05-13T00:12:24.059Z,90.16
2023-05-13T00:14:53.936Z,90.46
2023-05-13T00:17:23.815Z,90.03
2023-05-13T00:19:55.542Z,90.11
2023-05-13T00:22:25.366Z,90.44
2023-05-13T00:24:57.804Z,90.23
2023-05-13T00:27:27.734Z,90.47
2023-05-13T00:29:59.670Z,90.35
2023-05-13T00:32:29.931Z,90.55
2023-05-13T00:35:00.168Z,90.61
2023-05-13T00:37:29.986Z,90.73
2023-05-13T00:40:03.840Z,90.36
2023-05-13T00:42:34.062Z,90.58
2023-05-13T00:45:03.917Z,90.35
2023-05-13T00:47:33.914Z,90.30
2023-05-13T00:50:03.817Z,90.16
2023-05-13T00:52:33.701Z,90.25
2023-05-13T00:55:06.853Z,90.18
2023-05-13T00:57:37.896Z,90.51
2023-05-13T01:00:10.543Z,90.49
2023-05-13T01:02:48.751Z,90.60
2023-05-13T01:05:29.929Z,90.16
2023-05-13T01:08:07.028Z,90.13
2023-05-13T01:10:47.830Z,90.31
2023-05-13T01:13:23.390Z,90.08
2023-05-13T01:15:58.824Z,90.25
2023-05-13T01:18:34.744Z,90.12
2023-05-13T01:21:06.564Z,89.97
2023-05-13T01:23:39.066Z,89.46
2023-05-13T01:26:08.948Z,89.57
2023-05-13T01:28:39.306Z,89.68
2023-05-13T01:31:11.104Z,90.07
2023-05-13T01:33:41.513Z,90.12
2023-05-13T01:36:12.897Z,90.07
2023-05-13T01:38:46.683Z,90.36
2023-05-13T01:41:16.628Z,89.83
2023-05-13T01:43:46.556Z,89.91
2023-05-13T01:46:16.871Z,89.63
2023-05-13T01:48:46.773Z,90.01
2023-05-13T01:51:16.622Z,90.04
2023-05-13T01:53:49.064Z,89.74
2023-05-13T01:56:19.020Z,89.83
2023-05-13T01:58:48.843Z,90.18
2023-05-13T02:01:19.846Z,89.91
2023-05-13T02:03:52.557Z,90.10
2023-05-13T02:06:22.610Z,90.20
2023-05-13T02:08:55.045Z,90.54
2023-05-13T02:11:25.021Z,90.42
2023-05-13T02:13:55.052Z,90.72
2023-05-13T02:16:25.199Z,90.65
2023-05-13T02:18:55.109Z,90.53
2023-05-13T02:21:24.957Z,90.59
2023-05-13T02:23:57.868Z,90.60
2023-05-13T02:26:27.981Z,90.75
2023-05-13T02:28:57.978Z,90.56
2023-05-13T02:31:27.799Z,90.70
2023-05-13T02:33:58.018Z,90.72
2023-05-13T02:36:27.892Z,91.09
2023-05-13T02:39:00.716Z,90.93
2023-05-13T02:41:30.734Z,91.09
2023-05-13T02:44:01.026Z,91.14
2023-05-13T02:46:30.917Z,91.33
2023-05-13T02:49:00.908Z,91.44
2023-05-13T02:51:30.808Z,91.38
2023-05-13T02:54:03.281Z,91.23
2023-05-13T02:56:33.329Z,91.07
2023-05-13T02:59:03.248Z,90.81
2023-05-13T03:01:33.254Z,90.99
2023-05-13T03:04:03.121Z,90.73
2023-05-13T03:06:32.968Z,90.95
2023-05-13T03:09:05.374Z,91.07
2023-05-13T03:11:35.289Z,91.13
2023-05-13T03:14:05.161Z,91.07
2023-05-13T03:16:35.109Z,91.10
2023-05-13T03:19:05.025Z,91.06
2023-05-13T03:21:35.032Z,91.11
2023-05-13T03:24:07.935Z,91.22
2023-05-13T03:26:38.478Z,91.25
2023-05-13T03:29:08.276Z,91.38
2023-05-13T03:31:38.219Z,91.54
2023-05-13T03:34:08.306Z,91.39
2023-05-13T03:36:38.232Z,91.43
2023-05-13T03:39:11.427Z,91.38
2023-05-13T03:41:41.306Z,90.95
2023-05-13T03:44:11.159Z,91.13
2023-05-13T03:46:41.117Z,91.08
2023-05-13T03:49:11.038Z,90.93
2023-05-13T03:51:41.338Z,91.10
2023-05-13T03:54:13.922Z,91.57
2023-05-13T03:56:43.825Z,91.46
2023-05-13T03:59:13.639Z,91.16
2023-05-13T04:01:43.684Z,91.09
2023-05-13T04:04:13.561Z,91.14
2023-05-13T04:06:43.427Z,91.13
2023-05-13T04:09:15.881Z,90.96
2023-05-13T04:11:46.018Z,90.99
2023-05-13T04:14:16.260Z,90.93
2023-05-13T04:16:46.301Z,90.70
2023-05-13T04:19:16.161Z,90.71
2023-05-13T04:21:46.069Z,90.83
2023-05-13T04:24:18.597Z,90.93
2023-05-13T04:26:48.436Z,90.96
2023-05-13T04:29:18.807Z,90.92
2023-05-13T04:31:48.960Z,91.03
2023-05-13T04:34:18.951Z,91.16
2023-05-13T04:36:49.391Z,91.08
2023-05-13T04:39:22.008Z,90.96
2023-05-13T04:41:51.930Z,90.99
2023-05-13T04:44:21.895Z,91.19
2023-05-13T04:46:51.731Z,91.44
2023-05-13T04:49:21.546Z,91.90
2023-05-13T04:51:51.939Z,91.60
2023-05-13T04:54:24.890Z,91.64
2023-05-13T04:56:54.937Z,91.83
2023-05-13T04:59:25.457Z,91.91
2023-05-13T05:01:55.378Z,91.87
2023-05-13T05:04:25.267Z,91.94
2023-05-13T05:06:55.236Z,92.24
2023-05-13T05:09:27.656Z,92.32
2023-05-13T05:11:57.573Z,92.32
2023-05-13T05:14:27.452Z,92.47
2023-05-13T05:16:57.294Z,92.52
2023-05-13T05:19:27.305Z,92.76
2023-05-13T05:21:57.263Z,92.75
2023-05-13T05:24:29.792Z,93.00
2023-05-13T05:26:59.739Z,93.11
2023-05-13T05:29:29.600Z,93.20
2023-05-13T05:31:59.764Z,93.66
2023-05-13T05:34:29.800Z,93.79
2023-05-13T05:36:59.697Z,94.07
2023-05-13T05:39:32.234Z,94.49
2023-05-13T05:42:02.114Z,94.58
2023-05-13T05:44:32.024Z,94.95
2023-05-13T05:47:01.861Z,95.53
2023-05-13T05:49:31.820Z,95.85
2023-05-13T05:52:01.794Z,96.72
2023-05-13T05:54:34.448Z,96.67
2023-05-13T05:57:04.297Z,97.18
2023-05-13T05:59:34.219Z,97.29
2023-05-13T06:02:04.655Z,97.60
2023-05-13T06:04:34.613Z,98.22
2023-05-13T06:07:04.761Z,98.47
2023-05-13T06:09:37.378Z,99.44
2023-05-13T06:12:08.687Z,98.90
2023-05-13T06:14:38.679Z,99.50
2023-05-13T06:17:08.920Z,99.98
2023-05-13T06:19:38.894Z,99.99
2023-05-13T06:22:08.759Z,100.00
2023-05-13T06:24:43.233Z,100.00
2023-05-13T06:27:13.521Z,99.36
2023-05-13T06:29:43.429Z,99.61
2023-05-13T06:32:13.375Z,97.91
2023-05-13T06:34:46.169Z,98.16
2023-05-13T06:37:16.586Z,98.02
2023-05-13T06:39:49.212Z,98.02
2023-05-13T06:42:19.517Z,97.52
2023-05-13T06:44:49.386Z,96.56
2023-05-13T06:47:20.197Z,95.79
2023-05-13T06:49:51.060Z,93.30
2023-05-13T06:52:20.919Z,94.37
2023-05-13T06:54:53.484Z,89.08
2023-05-13T06:57:29.597Z,91.97
2023-05-13T07:00:06.066Z,91.17
2023-05-13T07:02:36.068Z,91.97
2023-05-13T07:05:06.355Z,88.31
2023-05-13T07:07:36.624Z,88.12
2023-05-13T07:10:10.104Z,85.98
2023-05-13T07:12:40.211Z,84.90
2023-05-13T07:15:11.616Z,84.67
2023-05-13T07:17:43.641Z,84.67
2023-05-13T07:20:14.314Z,84.10
2023-05-13T07:22:44.260Z,82.87
2023-05-13T07:25:18.039Z,81.12
2023-05-13T07:27:48.428Z,80.66
2023-05-13T07:30:18.928Z,79.36
2023-05-13T07:32:49.154Z,78.81
2023-05-13T07:35:19.879Z,76.80
2023-05-13T07:37:49.908Z,75.32
2023-05-13T07:40:22.903Z,74.43
2023-05-13T07:42:53.043Z,74.26
2023-05-13T07:45:23.460Z,73.49
2023-05-13T07:47:53.459Z,73.70
2023-05-13T07:50:24.054Z,74.48
2023-05-13T07:52:54.077Z,72.71
2023-05-13T07:55:26.880Z,68.77
2023-05-13T07:57:56.865Z,70.61
2023-05-13T08:00:27.122Z,69.54
2023-05-13T08:02:58.254Z,70.50
2023-05-13T08:05:28.223Z,72.03
2023-05-13T08:08:02.071Z,71.26
2023-05-13T08:10:34.641Z,68.17
2023-05-13T08:13:04.736Z,67.52
2023-05-13T08:15:34.722Z,67.13
2023-05-13T08:18:04.747Z,66.16
2023-05-13T08:20:34.847Z,66.17
2023-05-13T08:23:06.487Z,66.32
2023-05-13T08:25:39.465Z,62.48
2023-05-13T08:28:09.379Z,64.53
2023-05-13T08:30:40.924Z,62.75
2023-05-13T08:33:11.438Z,61.61
2023-05-13T08:35:42.971Z,61.83
2023-05-13T08:38:14.622Z,62.52
2023-05-13T08:40:48.594Z,57.46
2023-05-13T08:43:19.264Z,60.00
2023-05-13T08:45:50.936Z,60.01
2023-05-13T08:48:22.745Z,58.69
2023-05-13T08:50:54.290Z,57.43
2023-05-13T08:53:25.668Z,56.98
2023-05-13T08:55:58.666Z,54.09
2023-05-13T08:58:28.620Z,56.22
2023-05-13T09:00:59.260Z,55.77
2023-05-13T09:03:30.988Z,55.87
2023-05-13T09:06:03.813Z,54.09
2023-05-13T09:08:33.770Z,55.11
2023-05-13T09:11:06.397Z,54.29
2023-05-13T09:13:36.475Z,52.99
2023-05-13T09:16:06.703Z,53.18
2023-05-13T09:18:36.913Z,53.39
2023-05-13T09:21:28.044Z,50.47
2023-05-13T09:24:21.891Z,50.40
2023-05-13T09:26:55.117Z,49.45
2023-05-13T09:29:26.655Z,50.44
2023-05-13T09:31:58.593Z,50.49
2023-05-13T09:34:30.925Z,50.54
2023-05-13T09:37:02.438Z,51.44
2023-05-13T09:39:34.231Z,50.96
2023-05-13T09:42:07.695Z,50.52
2023-05-13T09:44:37.720Z,50.08
2023-05-13T09:47:08.249Z,49.65
2023-05-13T09:49:38.255Z,48.44
2023-05-13T09:52:11.569Z,47.11
2023-05-13T09:54:41.766Z,46.61
2023-05-13T09:57:16.554Z,47.18
2023-05-13T09:59:46.546Z,45.22
2023-05-13T10:02:19.959Z,44.29
2023-05-13T10:04:49.980Z,42.89
2023-05-13T10:07:24.689Z,43.73
2023-05-13T10:09:59.191Z,42.78
2023-05-13T10:12:34.379Z,42.39
2023-05-13T10:15:05.973Z,40.83
2023-05-13T10:17:36.259Z,41.25
2023-05-13T10:20:08.926Z,41.06
2023-05-13T10:22:39.921Z,40.83
2023-05-13T10:25:10.876Z,40.81
2023-05-13T10:27:43.737Z,39.34
2023-05-13T10:30:15.056Z,38.94
2023-05-13T10:32:45.108Z,39.58
2023-05-13T10:35:17.213Z,40.32
2023-05-13T10:37:59.482Z,40.28
2023-05-13T10:40:56.258Z,36.30
2023-05-13T10:43:31.567Z,38.82
2023-05-13T10:46:03.924Z,38.41
2023-05-13T10:48:43.649Z,36.74
2023-05-13T10:51:18.488Z,36.21
2023-05-13T10:53:52.076Z,36.34
2023-05-13T10:56:24.564Z,36.89
2023-05-13T10:59:04.449Z,36.76
2023-05-13T11:01:39.437Z,35.66
2023-05-13T11:04:09.524Z,37.40
2023-05-13T11:06:41.115Z,38.99
2023-05-13T11:09:14.658Z,38.93
2023-05-13T11:11:45.317Z,38.86
2023-05-13T11:14:22.366Z,36.42
2023-05-13T11:16:56.812Z,38.10
2023-05-13T11:19:30.126Z,37.24
2023-05-13T11:22:07.248Z,36.09
2023-05-13T11:24:37.594Z,37.20
2023-05-13T11:27:17.261Z,34.63
2023-05-13T11:29:55.839Z,35.39
2023-05-13T11:32:56.988Z,34.79
2023-05-13T11:35:28.440Z,35.87
2023-05-13T11:38:00.320Z,34.47
2023-05-13T11:40:32.838Z,35.36
2023-05-13T11:43:05.286Z,36.18
2023-05-13T11:45:42.686Z,36.10
2023-05-13T11:48:23.072Z,33.98
2023-05-13T11:50:53.513Z,36.47
2023-05-13T11:53:24.895Z,37.12
2023-05-13T11:55:55.788Z,35.83
2023-05-13T11:58:25.935Z,35.30
2023-05-13T12:00:59.394Z,33.91
2023-05-13T12:03:31.427Z,35.13
2023-05-13T12:06:04.440Z,34.61
2023-05-13T12:08:34.752Z,34.36
2023-05-13T12:11:06.445Z,34.08
2023-05-13T12:13:36.549Z,35.43
2023-05-13T12:16:10.723Z,34.15
2023-05-13T12:18:40.872Z,34.32
2023-05-13T12:21:18.408Z,34.27
2023-05-13T12:23:48.281Z,35.92
2023-05-13T12:26:18.320Z,36.26
2023-05-13T12:28:48.198Z,34.50
2023-05-13T12:31:21.798Z,35.02
2023-05-13T12:33:52.202Z,36.47
2023-05-13T12:36:25.978Z,35.79
2023-05-13T12:39:03.070Z,35.93
2023-05-13T12:41:35.305Z,35.03
2023-05-13T12:44:07.250Z,36.27
2023-05-13T12:46:40.512Z,35.11
2023-05-13T12:49:13.028Z,37.28
2023-05-13T12:51:43.068Z,37.07
2023-05-13T12:54:16.240Z,37.17
2023-05-13T12:56:50.377Z,34.29
2023-05-13T12:59:20.754Z,34.14
2023-05-13T13:01:53.277Z,33.91
2023-05-13T13:04:23.641Z,35.75
2023-05-13T13:06:53.631Z,36.57
2023-05-13T13:09:23.596Z,37.64
2023-05-13T13:11:53.587Z,36.31
2023-05-13T13:14:26.469Z,35.69
2023-05-13T13:16:58.959Z,34.30
2023-05-13T13:19:29.043Z,35.42
2023-05-13T13:21:59.075Z,34.86
2023-05-13T13:24:29.023Z,35.45
2023-05-13T13:26:59.159Z,36.08
2023-05-13T13:29:29.051Z,34.11
2023-05-13T13:32:03.392Z,33.91
2023-05-13T13:34:34.121Z,33.93
2023-05-13T13:37:04.025Z,31.35
2023-05-13T13:39:35.061Z,31.58
2023-05-13T13:42:05.846Z,32.88
2023-05-13T13:44:37.102Z,33.01
2023-05-13T13:47:09.773Z,34.23
2023-05-13T13:49:39.816Z,34.79
2023-05-13T13:52:12.282Z,33.69
2023-05-13T13:54:42.583Z,33.95
2023-05-13T13:57:12.746Z,34.00
2023-05-13T13:59:43.392Z,33.36
2023-05-13T14:02:15.917Z,32.21
2023-05-13T14:04:45.888Z,31.28
2023-05-13T14:07:15.962Z,31.81
2023-05-13T14:09:45.889Z,30.68
2023-05-13T14:12:15.818Z,30.66
2023-05-13T14:14:45.733Z,30.63
2023-05-13T14:17:18.341Z,31.92
2023-05-13T14:19:51.904Z,33.13
2023-05-13T14:22:21.996Z,32.19
2023-05-13T14:24:51.979Z,32.97
2023-05-13T14:27:24.894Z,33.55
2023-05-13T14:29:54.923Z,32.30
2023-05-13T14:32:29.275Z,33.52
2023-05-13T14:34:59.351Z,32.63
2023-05-13T14:37:29.451Z,32.86
2023-05-13T14:39:59.749Z,32.77
2023-05-13T14:42:29.674Z,32.22
2023-05-13T14:44:59.661Z,32.55
2023-05-13T14:47:32.229Z,33.76
2023-05-13T14:50:02.295Z,33.48
2023-05-13T14:52:32.326Z,35.55
2023-05-13T14:55:02.183Z,37.17
2023-05-13T14:57:32.170Z,40.04
2023-05-13T15:00:02.000Z,40.44
2023-05-13T15:02:34.942Z,39.05
2023-05-13T15:05:04.912Z,39.62
2023-05-13T15:07:35.098Z,39.78
2023-05-13T15:10:05.029Z,42.54
2023-05-13T15:12:34.913Z,41.92
2023-05-13T15:15:04.932Z,42.13
2023-05-13T15:17:37.500Z,41.70
2023-05-13T15:20:08.448Z,40.75
2023-05-13T15:22:38.468Z,38.23
2023-05-13T15:25:09.391Z,39.29
2023-05-13T15:27:39.250Z,38.64
2023-05-13T15:30:11.105Z,38.82
2023-05-13T15:32:43.591Z,39.01
2023-05-13T15:35:13.541Z,37.85
2023-05-13T15:37:45.311Z,37.50
2023-05-13T15:40:15.926Z,38.89
2023-05-13T15:42:50.706Z,38.34
2023-05-13T15:45:20.769Z,39.17
2023-05-13T15:47:53.772Z,39.03
2023-05-13T15:50:26.887Z,39.24
2023-05-13T15:52:58.641Z,39.61
2023-05-13T15:55:28.808Z,39.96
2023-05-13T15:57:58.787Z,40.51
2023-05-13T16:00:28.887Z,39.40
2023-05-13T16:03:01.578Z,38.73
2023-05-13T16:05:32.108Z,40.29
2023-05-13T16:08:02.086Z,39.38
2023-05-13T16:10:32.356Z,39.98
2023-05-13T16:13:03.003Z,39.47
2023-05-13T16:15:32.987Z,39.15
2023-05-13T16:18:05.479Z,39.64
2023-05-13T16:20:35.484Z,38.27
2023-05-13T16:23:05.374Z,38.78
2023-05-13T16:25:36.919Z,38.64
2023-05-13T16:28:07.172Z,39.11
2023-05-13T16:30:37.885Z,38.73
2023-05-13T16:33:10.521Z,38.84
2023-05-13T16:35:42.558Z,39.74
2023-05-13T16:38:12.611Z,38.22
2023-05-13T16:40:42.851Z,37.79
2023-05-13T16:43:13.376Z,38.68
2023-05-13T16:45:44.126Z,39.28
2023-05-13T16:48:17.235Z,39.37
2023-05-13T16:50:47.968Z,40.19
2023-05-13T16:53:18.064Z,39.75
2023-05-13T16:55:49.739Z,40.68
2023-05-13T16:58:19.952Z,39.86
2023-05-13T17:00:50.083Z,39.87
2023-05-13T17:03:22.769Z,38.62
2023-05-13T17:05:52.908Z,38.78
2023-05-13T17:08:24.710Z,39.57
2023-05-13T17:10:54.668Z,39.89
2023-05-13T17:13:24.579Z,40.58
2023-05-13T17:15:54.817Z,40.48
2023-05-13T17:18:27.433Z,40.70
2023-05-13T17:20:57.334Z,41.36
2023-05-13T17:23:27.218Z,40.94
2023-05-13T17:25:57.129Z,41.19
2023-05-13T17:28:27.165Z,41.43
2023-05-13T17:30:57.086Z,41.19
2023-05-13T17:33:29.759Z,41.83
2023-05-13T17:35:59.630Z,42.06
2023-05-13T17:38:29.929Z,42.17
2023-05-13T17:40:59.902Z,43.20
2023-05-13T17:43:30.010Z,44.00
2023-05-13T17:46:00.044Z,44.69
2023-05-13T17:48:33.425Z,45.57
2023-05-13T17:51:06.252Z,45.94
2023-05-13T17:53:37.558Z,45.92
2023-05-13T17:56:08.633Z,46.43
2023-05-13T17:58:38.520Z,46.51
2023-05-13T18:01:08.547Z,47.01
2023-05-13T18:03:41.132Z,47.10
2023-05-13T18:06:11.329Z,46.92
2023-05-13T18:08:41.317Z,47.84
2023-05-13T18:11:11.279Z,47.48
2023-05-13T18:13:41.227Z,47.32
2023-05-13T18:16:11.858Z,47.16
2023-05-13T18:18:44.685Z,47.91
2023-05-13T18:21:14.589Z,48.23
2023-05-13T18:23:46.757Z,48.97
2023-05-13T18:26:16.705Z,49.58
2023-05-13T18:28:47.271Z,49.26
2023-05-13T18:31:17.429Z,49.34
2023-05-13T18:33:49.914Z,50.29
2023-05-13T18:36:20.384Z,49.84
2023-05-13T18:38:50.345Z,50.11
2023-05-13T18:41:20.224Z,50.34
2023-05-13T18:43:50.103Z,50.54
2023-05-13T18:46:20.317Z,50.97
2023-05-13T18:48:52.867Z,50.98
2023-05-13T18:51:22.732Z,50.95
2023-05-13T18:53:52.924Z,51.71
2023-05-13T18:56:23.242Z,51.70
2023-05-13T18:58:53.165Z,52.82
2023-05-13T19:01:23.259Z,53.56
2023-05-13T19:03:56.009Z,54.21
2023-05-13T19:06:26.152Z,54.44
2023-05-13T19:08:56.139Z,54.19
2023-05-13T19:11:26.327Z,54.77
2023-05-13T19:13:56.809Z,54.98
2023-05-13T19:16:26.991Z,54.84
2023-05-13T19:18:59.763Z,55.52
2023-05-13T19:21:30.044Z,54.97
2023-05-13T19:24:00.163Z,55.78
2023-05-13T19:26:30.151Z,55.37
2023-05-13T19:29:00.055Z,55.67
2023-05-13T19:31:31.744Z,56.57
2023-05-13T19:34:04.749Z,57.74
2023-05-13T19:36:34.760Z,57.75
2023-05-13T19:39:04.762Z,58.02
2023-05-13T19:41:34.843Z,58.02
2023-05-13T19:44:05.348Z,58.33
2023-05-13T19:46:35.764Z,58.95
2023-05-13T19:49:09.276Z,59.24
2023-05-13T19:51:39.647Z,59.20
2023-05-13T19:54:11.055Z,58.98
2023-05-13T19:56:41.556Z,59.00
2023-05-13T19:59:11.698Z,58.70
2023-05-13T20:01:41.706Z,58.45
2023-05-13T20:04:14.865Z,58.59
2023-05-13T20:06:44.835Z,58.78
2023-05-13T20:09:17.076Z,59.31
2023-05-13T20:11:47.175Z,59.94
2023-05-13T20:14:17.309Z,59.76
2023-05-13T20:16:47.836Z,59.57
2023-05-13T20:19:21.080Z,60.28
2023-05-13T20:21:51.095Z,60.25
2023-05-13T20:24:21.084Z,60.54
2023-05-13T20:26:50.980Z,61.46
2023-05-13T20:29:21.012Z,61.21
2023-05-13T20:31:51.171Z,61.38
2023-05-13T20:34:23.849Z,61.59
2023-05-13T20:36:53.790Z,61.52
2023-05-13T20:39:24.171Z,61.15
2023-05-13T20:41:54.609Z,61.80
2023-05-13T20:44:28.139Z,62.22
2023-05-13T20:46:58.225Z,62.37
2023-05-13T20:49:30.844Z,62.34
2023-05-13T20:52:06.348Z,62.75
2023-05-13T20:54:38.920Z,62.73
2023-05-13T20:57:09.116Z,62.79
2023-05-13T20:59:39.040Z,63.27
2023-05-13T21:02:09.061Z,63.25
2023-05-13T21:04:41.620Z,63.67
2023-05-13T21:07:11.945Z,64.27
2023-05-13T21:09:42.268Z,63.70
2023-05-13T21:12:12.333Z,64.38
2023-05-13T21:14:42.257Z,64.01
2023-05-13T21:17:12.706Z,64.67
2023-05-13T21:19:45.219Z,64.98
2023-05-13T21:22:15.137Z,64.91
2023-05-13T21:24:45.720Z,64.72
2023-05-13T21:27:15.590Z,65.41
2023-05-13T21:29:45.471Z,65.75
2023-05-13T21:32:16.702Z,65.61
2023-05-13T21:34:49.266Z,65.85
2023-05-13T21:37:19.136Z,66.15
2023-05-13T21:39:49.058Z,66.46
2023-05-13T21:42:19.443Z,66.74
2023-05-13T21:44:49.325Z,66.78
2023-05-13T21:47:19.205Z,67.12
2023-05-13T21:49:54.740Z,66.91
2023-05-13T21:52:24.697Z,67.24
2023-05-13T21:54:54.931Z,67.45
2023-05-13T21:57:24.887Z,67.97
2023-05-13T21:59:54.853Z,67.98
2023-05-13T22:02:25.011Z,68.24
2023-05-13T22:04:57.612Z,68.34
2023-05-13T22:07:27.560Z,68.32
2023-05-13T22:09:57.795Z,67.83
2023-05-13T22:12:27.662Z,68.37
2023-05-13T22:14:57.709Z,68.32
2023-05-13T22:17:27.794Z,68.48
2023-05-13T22:20:00.326Z,68.10
2023-05-13T22:22:33.225Z,68.61
2023-05-13T22:25:03.614Z,68.70
2023-05-13T22:27:33.536Z,68.65
2023-05-13T22:30:03.442Z,68.68
2023-05-13T22:32:34.593Z,68.37
2023-05-13T22:35:08.064Z,69.13
2023-05-13T22:37:38.334Z,68.86
2023-05-13T22:40:10.012Z,69.35
2023-05-13T22:42:40.038Z,68.67
2023-05-13T22:45:11.355Z,68.64
2023-05-13T22:47:41.477Z,69.01
2023-05-13T22:50:15.255Z,69.38
2023-05-13T22:52:45.445Z,69.46
2023-05-13T22:55:15.598Z,69.97
2023-05-13T22:57:45.574Z,69.88
2023-05-13T23:00:16.709Z,70.34
2023-05-13T23:02:46.720Z,70.84
2023-05-13T23:05:19.422Z,70.60
2023-05-13T23:07:49.304Z,70.70
2023-05-13T23:10:19.337Z,70.91
2023-05-13T23:12:49.556Z,70.91
2023-05-13T23:15:19.585Z,70.74
2023-05-13T23:17:49.668Z,71.17
2023-05-13T23:20:22.785Z,70.96
2023-05-13T23:22:52.869Z,71.28
2023-05-13T23:25:22.946Z,71.33
2023-05-13T23:27:54.100Z,71.32
2023-05-13T23:30:25.166Z,71.14
2023-05-13T23:32:58.192Z,71.21
2023-05-13T23:35:31.123Z,71.49
2023-05-13T23:38:01.375Z,71.64
2023-05-13T23:40:31.378Z,71.95
2023-05-13T23:43:01.353Z,71.50
2023-05-13T23:45:31.581Z,71.56
2023-05-13T23:48:01.614Z,71.41
2023-05-13T23:50:35.961Z,72.05
2023-05-13T23:53:05.974Z,71.89
2023-05-13T23:55:36.071Z,71.66
2023-05-13T23:58:06.256Z,71.89
